Time;durP1;ratioP1;P1;durP2;ratioP2;P2;SDS_P1;SDS_P2;PMS_P1;PMS_P2;Temp;Humidity;BMP_temperature;BMP_pressure;BME280_temperature;BME280_humidity;BME280_pressure;Samples;Min_cycle;Max_cycle;Signal;HPM_P1;HPM_P2
2023/08/29 00:01:55;;;;;;;6.75;1.48;;;;;;;13.58;100.00;100456.84;6098287;28;20086;-66
2023/08/29 00:04:51;;;;;;;1.50;1.10;;;;;;;13.61;100.00;100461.00;6097461;28;20476;-66
2023/08/29 00:07:46;;;;;;;2.37;1.50;;;;;;;13.57;100.00;100438.34;6098422;28;20044;-66
2023/08/29 00:10:43;;;;;;;3.03;1.45;;;;;;;13.59;100.00;100433.69;6098580;28;20031;-66
2023/08/29 00:13:38;;;;;;;2.70;1.23;;;;;;;13.55;100.00;100440.38;6097477;28;20025;-66
2023/08/29 00:16:33;;;;;;;2.43;1.50;;;;;;;13.55;100.00;100435.03;6098279;28;20044;-66
2023/08/29 00:19:29;;;;;;;2.30;1.40;;;;;;;13.41;100.00;100423.25;6097350;28;20481;-66
2023/08/29 00:22:24;;;;;;;2.80;1.30;;;;;;;13.47;100.00;100432.41;6097967;28;20040;-66
2023/08/29 00:25:19;;;;;;;2.38;1.40;;;;;;;13.49;100.00;100444.56;6097740;28;20055;-66
2023/08/29 00:28:15;;;;;;;3.37;1.40;;;;;;;13.42;100.00;100429.44;6098045;28;20040;-66
2023/08/29 00:31:10;;;;;;;1.20;0.90;;;;;;;13.40;100.00;100429.59;6098461;28;20072;-66
2023/08/29 00:34:05;;;;;;;2.17;1.33;;;;;;;13.51;100.00;100439.03;6097372;28;20291;-66
2023/08/29 00:37:01;;;;;;;3.40;1.20;;;;;;;13.51;100.00;100458.53;6097691;28;20045;-66
2023/08/29 00:39:56;;;;;;;3.58;1.60;;;;;;;13.52;100.00;100456.69;6098037;28;20024;-66
2023/08/29 00:42:52;;;;;;;5.07;1.60;;;;;;;13.57;100.00;100444.53;6097856;28;20073;-66
2023/08/29 00:45:48;;;;;;;3.77;1.20;;;;;;;13.52;100.00;100427.38;6097438;28;20322;-66
2023/08/29 00:48:43;;;;;;;2.70;1.17;;;;;;;13.62;100.00;100462.66;6079582;28;20033;-66
2023/08/29 00:51:39;;;;;;;3.03;1.33;;;;;;;13.68;100.00;100461.97;6097924;28;20036;-67
2023/08/29 00:54:34;;;;;;;3.30;1.48;;;;;;;13.62;100.00;100471.47;6078984;28;20041;-66
2023/08/29 00:57:30;;;;;;;6.50;1.93;;;;;;;13.67;100.00;100470.97;6097344;28;20498;-66
2023/08/29 01:00:26;;;;;;;5.30;1.47;;;;;;;13.65;100.00;100489.78;6079871;28;20025;-66
2023/08/29 01:03:21;;;;;;;5.22;1.73;;;;;;;13.68;100.00;100496.63;6096498;28;20283;-66
2023/08/29 01:06:17;;;;;;;2.60;1.40;;;;;;;13.64;100.00;100489.97;6079736;28;20072;-66
2023/08/29 01:09:12;;;;;;;6.45;1.65;;;;;;;13.62;100.00;100507.94;6096900;28;20358;-66
2023/08/29 01:12:18;;;;;;;3.13;1.50;;;;;;;13.48;100.00;100496.16;6096667;28;20052;-66
2023/08/29 01:15:20;;;;;;;3.88;1.42;;;;;;;13.33;100.00;100494.38;6096560;28;20099;-66
2023/08/29 01:18:18;;;;;;;3.15;1.45;;;;;;;13.36;100.00;100489.53;6079086;28;20547;-66
2023/08/29 01:21:36;;;;;;;3.47;1.40;;;;;;;13.32;100.00;100482.03;6097284;28;20029;-67
2023/08/29 01:24:46;;;;;;;2.42;1.40;;;;;;;13.29;100.00;100483.22;6079790;28;20120;-66
2023/08/29 01:27:42;;;;;;;4.65;1.60;;;;;;;13.29;100.00;100488.53;6078774;28;20540;-66
2023/08/29 01:30:38;;;;;;;3.13;1.30;;;;;;;13.40;100.00;100480.19;6096564;28;20090;-66
2023/08/29 01:33:35;;;;;;;4.63;1.58;;;;;;;13.29;100.00;100477.88;6100867;28;20060;-66
2023/08/29 01:36:41;;;;;;;2.80;1.23;;;;;;;13.31;100.00;100475.91;6083932;28;20051;-67
2023/08/29 01:39:37;;;;;;;2.95;1.83;;;;;;;13.30;100.00;100484.88;6083691;28;20476;-66
2023/08/29 01:42:33;;;;;;;2.90;1.45;;;;;;;13.28;100.00;100486.06;6101587;28;20039;-66
2023/08/29 01:45:28;;;;;;;3.53;1.50;;;;;;;13.19;100.00;100468.41;6100949;28;20033;-65
2023/08/29 01:48:23;;;;;;;2.70;1.47;;;;;;;13.06;100.00;100472.41;6101094;28;20041;-65
2023/08/29 01:51:19;;;;;;;8.33;1.87;;;;;;;13.03;100.00;100480.72;6101303;28;20033;-65
2023/08/29 01:54:14;;;;;;;4.73;1.83;;;;;;;13.04;100.00;100490.34;6100736;28;20283;-65
2023/08/29 01:57:11;;;;;;;4.30;2.55;;;;;;;13.06;100.00;100499.03;6101537;28;20271;-65
2023/08/29 02:00:07;;;;;;;4.75;1.90;;;;;;;12.94;100.00;100478.22;6084725;28;20040;-65
2023/08/29 02:03:02;;;;;;;4.38;1.73;;;;;;;12.93;100.00;100480.06;6101215;28;20064;-65
2023/08/29 02:05:58;;;;;;;3.13;1.77;;;;;;;12.90;100.00;100482.22;6082663;28;20029;-65
2023/08/29 02:08:54;;;;;;;5.73;2.00;;;;;;;12.86;100.00;100487.03;6100853;28;20294;-65
2023/08/29 02:11:50;;;;;;;4.15;1.52;;;;;;;12.86;100.00;100491.53;6101010;28;20024;-65
2023/08/29 02:14:45;;;;;;;3.15;1.90;;;;;;;12.92;100.00;100497.03;6099966;28;20055;-65
2023/08/29 02:17:40;;;;;;;4.15;2.25;;;;;;;12.87;100.00;100475.41;6100777;28;20025;-66
2023/08/29 02:20:36;;;;;;;3.88;2.10;;;;;;;12.79;100.00;100480.75;6100677;28;20041;-66
2023/08/29 02:23:31;;;;;;;4.82;2.28;;;;;;;12.84;100.00;100489.06;6099762;28;20444;-65
2023/08/29 02:26:27;;;;;;;3.80;1.80;;;;;;;12.80;100.00;100477.06;6099435;28;20036;-66
2023/08/29 02:29:22;;;;;;;6.13;2.33;;;;;;;12.70;100.00;100471.06;6099396;28;20075;-66
2023/08/29 02:32:18;;;;;;;3.20;1.77;;;;;;;12.81;100.00;100489.38;6099197;28;20271;-66
2023/08/29 02:35:13;;;;;;;5.83;1.90;;;;;;;12.75;100.00;100463.44;6098479;28;20468;-66
2023/08/29 02:38:09;;;;;;;4.27;2.17;;;;;;;12.88;100.00;100484.25;6099221;28;20358;-66
2023/08/29 02:41:09;;;;;;;3.33;1.90;;;;;;;12.86;100.00;100492.38;6099110;28;20404;-66
2023/08/29 02:44:05;;;;;;;4.13;1.95;;;;;;;12.78;100.00;100478.22;6098289;28;20137;-66
2023/08/29 02:47:00;;;;;;;3.80;2.10;;;;;;;12.75;100.00;100468.75;6098982;28;20439;-66
2023/08/29 02:49:55;;;;;;;3.93;2.17;;;;;;;12.68;100.00;100457.13;6103600;28;20319;-66
2023/08/29 02:52:50;;;;;;;3.93;2.27;;;;;;;12.60;100.00;100459.78;6099900;28;20420;-66
2023/08/29 02:55:49;;;;;;;4.67;1.97;;;;;;;12.67;100.00;100466.09;6097759;28;20029;-66
2023/08/29 02:58:44;;;;;;;4.40;1.85;;;;;;;12.71;100.00;100464.78;6099004;28;20041;-66
2023/08/29 03:01:40;;;;;;;4.88;2.13;;;;;;;12.60;100.00;100454.44;6080611;28;20031;-66
2023/08/29 03:04:35;;;;;;;3.10;2.17;;;;;;;12.59;100.00;100460.75;6097880;28;20036;-66
2023/08/29 03:07:31;;;;;;;4.40;1.90;;;;;;;12.59;100.00;100460.75;6098921;28;20033;-65
2023/08/29 03:10:26;;;;;;;4.72;1.80;;;;;;;12.65;100.00;100472.56;6098519;28;20048;-66
2023/08/29 03:13:22;;;;;;;5.57;2.10;;;;;;;12.57;100.00;100464.59;6098201;28;20061;-67
2023/08/29 03:16:18;;;;;;;3.28;1.95;;;;;;;12.46;100.00;100463.06;6097990;28;20036;-66
2023/08/29 03:19:13;;;;;;;4.50;2.10;;;;;;;12.48;100.00;100472.56;6098172;28;20388;-66
2023/08/29 03:22:09;;;;;;;6.22;2.15;;;;;;;12.53;100.00;100464.91;6098593;28;20029;-65
2023/08/29 03:25:07;;;;;;;5.03;2.30;;;;;;;12.46;100.00;100458.59;6061949;28;1044171;-66
2023/08/29 03:28:03;;;;;;;3.40;2.20;;;;;;;12.44;100.00;100449.97;6099817;28;20667;-66
2023/08/29 03:31:08;;;;;;;7.57;4.20;;;;;;;12.60;100.00;100458.94;6099468;28;20037;-66
2023/08/29 03:34:04;;;;;;;5.20;2.40;;;;;;;12.38;100.00;100432.00;6098803;28;20037;-66
2023/08/29 03:37:00;;;;;;;4.00;2.05;;;;;;;12.54;100.00;100455.94;6099384;28;20483;-66
2023/08/29 03:39:55;;;;;;;5.30;2.63;;;;;;;12.59;100.00;100452.78;6099103;28;20025;-66
2023/08/29 03:42:50;;;;;;;4.60;2.40;;;;;;;12.49;100.00;100430.84;6099363;28;20104;-66
2023/08/29 03:45:46;;;;;;;4.30;2.13;;;;;;;12.45;100.00;100421.50;6098279;28;20380;-66
2023/08/29 03:48:41;;;;;;;3.83;2.30;;;;;;;12.46;100.00;100439.13;6098656;28;20052;-66
2023/08/29 03:51:36;;;;;;;5.37;2.60;;;;;;;12.44;100.00;100434.00;6098917;28;20037;-66
2023/08/29 03:54:32;;;;;;;3.77;2.30;;;;;;;12.44;100.00;100427.84;6097140;28;20631;-67
2023/08/29 03:57:27;;;;;;;3.90;2.22;;;;;;;12.29;100.00;100410.84;6098932;28;20064;-64
2023/08/29 04:00:22;;;;;;;5.30;2.50;;;;;;;12.31;100.00;100416.88;6098221;28;20095;-67
2023/08/29 04:03:18;;;;;;;6.13;2.57;;;;;;;12.24;100.00;100408.69;6098480;28;20032;-66
2023/08/29 04:06:14;;;;;;;6.10;2.95;;;;;;;12.29;100.00;100413.50;6102154;28;20025;-66
2023/08/29 04:09:10;;;;;;;4.53;2.42;;;;;;;12.20;100.00;100406.53;6097773;28;20052;-65
2023/08/29 04:12:08;;;;;;;6.07;2.88;;;;;;;12.13;100.00;100398.38;6104111;28;20443;-65
2023/08/29 04:15:03;;;;;;;6.00;2.60;;;;;;;12.15;100.00;100406.22;6097354;28;20036;-65
2023/08/29 04:18:00;;;;;;;5.75;2.78;;;;;;;12.04;100.00;100382.59;6099533;28;20029;-64
2023/08/29 04:20:55;;;;;;;6.65;2.72;;;;;;;12.05;100.00;100390.41;6098108;28;20084;-65
2023/08/29 04:23:50;;;;;;;6.20;2.70;;;;;;;12.02;100.00;100387.22;6097310;28;20029;-66
2023/08/29 04:26:46;;;;;;;6.03;2.60;;;;;;;11.90;100.00;100389.38;6098998;28;20388;-65
2023/08/29 04:29:42;;;;;;;4.75;2.42;;;;;;;11.99;100.00;100395.53;6098772;28;20044;-65
2023/08/29 04:32:37;;;;;;;5.65;2.70;;;;;;;12.05;100.00;100385.06;6107130;28;20044;-65
2023/08/29 04:35:33;;;;;;;5.93;2.53;;;;;;;11.97;100.00;100400.16;6097882;28;20468;-66
2023/08/29 04:38:28;;;;;;;4.50;2.55;;;;;;;12.06;100.00;100404.53;6100001;28;20287;-65
2023/08/29 04:41:24;;;;;;;4.13;2.05;;;;;;;11.94;100.00;100390.69;6097638;28;20657;-66
2023/08/29 04:44:19;;;;;;;4.37;2.30;;;;;;;12.07;100.00;100398.19;6104073;28;20107;-65
2023/08/29 04:47:14;;;;;;;4.73;2.80;;;;;;;12.06;100.00;100418.66;6097892;28;20035;-65
2023/08/29 04:50:10;;;;;;;4.70;2.20;;;;;;;12.09;100.00;100418.31;6102349;28;20384;-66
2023/08/29 04:53:05;;;;;;;3.60;2.17;;;;;;;11.92;100.00;100409.47;6097988;28;20024;-66
2023/08/29 04:56:02;;;;;;;6.60;2.47;;;;;;;12.01;100.00;100410.34;6096609;28;20051;-66
2023/08/29 04:58:57;;;;;;;4.30;2.53;;;;;;;11.88;100.00;100402.81;6097030;28;20097;-65
2023/08/29 05:01:53;;;;;;;6.17;2.63;;;;;;;11.87;100.00;100398.50;6097417;28;20028;-66
2023/08/29 05:04:48;;;;;;;3.87;2.33;;;;;;;11.92;100.00;100396.19;6095736;28;20029;-66
2023/08/29 05:07:43;;;;;;;4.15;2.40;;;;;;;11.95;100.00;100400.34;6097332;28;20115;-65
2023/08/29 05:10:39;;;;;;;4.60;2.50;;;;;;;12.06;100.00;100397.38;6098000;28;20039;-65
2023/08/29 05:13:34;;;;;;;3.33;2.07;;;;;;;12.08;100.00;100395.38;6077898;28;20103;-65
2023/08/29 05:16:32;;;;;;;4.47;2.70;;;;;;;12.04;100.00;100393.22;6096823;28;20283;-66
2023/08/29 05:19:27;;;;;;;4.72;2.67;;;;;;;12.33;100.00;100418.34;6109225;28;20036;-66
2023/08/29 05:22:23;;;;;;;5.33;2.53;;;;;;;12.25;100.00;100407.72;6102169;28;20040;-66
2023/08/29 05:25:18;;;;;;;5.63;2.70;;;;;;;12.50;100.00;100421.88;6095934;28;20536;-65
2023/08/29 05:28:13;;;;;;;8.87;2.80;;;;;;;12.60;100.00;100417.22;6097011;28;20668;-66
2023/08/29 05:31:08;;;;;;;6.37;2.90;;;;;;;12.72;100.00;100415.88;6097232;28;20037;-66
2023/08/29 05:34:04;;;;;;;8.40;2.80;;;;;;;12.73;100.00;100430.00;6095948;28;20033;-65
2023/08/29 05:36:59;;;;;;;6.15;3.03;;;;;;;12.82;100.00;100426.34;6096639;28;20033;-65
2023/08/29 05:39:54;;;;;;;7.43;2.50;;;;;;;13.01;100.00;100426.84;6096464;28;20075;-66
2023/08/29 05:42:50;;;;;;;3.63;2.40;;;;;;;13.16;100.00;100429.66;6096417;28;20588;-66
2023/08/29 05:45:45;;;;;;;5.33;2.63;;;;;;;13.07;100.00;100404.88;6096112;28;20468;-66
2023/08/29 05:48:40;;;;;;;6.25;2.60;;;;;;;13.07;100.00;100412.84;6096130;28;20091;-66
2023/08/29 05:51:36;;;;;;;6.23;2.63;;;;;;;13.01;100.00;100405.53;6096734;28;20036;-66
2023/08/29 05:54:31;;;;;;;4.27;2.33;;;;;;;13.12;100.00;100401.72;6094988;28;20400;-66
2023/08/29 05:57:26;;;;;;;3.60;2.30;;;;;;;13.17;100.00;100403.84;6096110;28;20056;-66
2023/08/29 06:00:22;;;;;;;6.37;2.40;;;;;;;13.06;100.00;100397.88;6096013;28;20032;-65
2023/08/29 06:03:17;;;;;;;5.30;2.60;;;;;;;13.21;100.00;100389.22;6095471;28;20280;-66
2023/08/29 06:06:14;;;;;;;4.07;2.07;;;;;;;13.13;100.00;100393.53;6095503;28;20124;-66
2023/08/29 06:09:10;;;;;;;6.35;2.70;;;;;;;13.25;100.00;100406.50;6095989;28;20086;-66
2023/08/29 06:12:06;;;;;;;4.57;2.30;;;;;;;13.23;100.00;100404.03;6095584;28;20036;-66
2023/08/29 06:15:01;;;;;;;7.53;2.50;;;;;;;13.17;100.00;100404.69;6095568;28;20029;-66
2023/08/29 06:17:57;;;;;;;5.47;2.87;;;;;;;13.24;100.00;100410.16;6097352;28;20029;-66
2023/08/29 06:20:52;;;;;;;6.00;3.10;;;;;;;13.08;100.00;100409.22;6101138;28;20256;-66
2023/08/29 06:23:47;;;;;;;5.63;3.00;;;;;;;13.06;100.00;100410.34;6101453;28;20119;-66
2023/08/29 06:26:43;;;;;;;6.10;3.13;;;;;;;13.13;100.00;100431.84;6103957;28;20767;-65
2023/08/29 06:29:38;;;;;;;6.13;2.73;;;;;;;13.06;100.00;100405.84;6100185;28;20271;-66
2023/08/29 06:32:36;;;;;;;5.53;2.40;;;;;;;13.19;100.00;100407.19;6099356;28;20543;-65
2023/08/29 06:35:38;;;;;;;5.05;3.10;;;;;;;13.15;100.00;100401.38;6099452;28;20040;-66
2023/08/29 06:38:34;;;;;;;4.85;3.03;;;;;;;13.07;100.00;100402.22;6099416;28;20044;-65
2023/08/29 06:41:30;;;;;;;5.57;2.60;;;;;;;13.13;100.00;100414.00;6100226;28;20115;-65
2023/08/29 06:44:25;;;;;;;5.63;3.13;;;;;;;13.25;100.00;100406.50;6103984;28;20025;-66
2023/08/29 06:47:20;;;;;;;4.43;2.80;;;;;;;13.32;100.00;100412.78;6106881;28;20075;-66
2023/08/29 06:50:16;;;;;;;4.53;2.67;;;;;;;13.39;100.00;100424.44;6101441;28;20063;-66
2023/08/29 06:53:11;;;;;;;5.88;2.67;;;;;;;13.43;100.00;100421.25;6098811;28;20035;-65
2023/08/29 06:56:06;;;;;;;6.10;3.13;;;;;;;13.41;100.00;100414.44;6103726;28;20124;-66
2023/08/29 06:59:03;;;;;;;5.33;2.60;;;;;;;13.39;100.00;100424.44;6104627;28;20064;-65
2023/08/29 07:01:59;;;;;;;6.25;3.25;;;;;;;13.40;100.00;100420.78;6104945;28;20033;-65
2023/08/29 07:04:54;;;;;;;5.45;2.65;;;;;;;13.27;100.00;100423.97;6102246;28;20083;-65
2023/08/29 07:07:50;;;;;;;6.93;3.13;;;;;;;13.45;100.00;100429.09;6101317;28;20047;-65
2023/08/29 07:10:45;;;;;;;7.35;3.00;;;;;;;13.32;100.00;100418.97;6099875;28;20283;-66
2023/08/29 07:13:41;;;;;;;5.40;2.80;;;;;;;13.46;100.00;100425.41;6098284;28;20119;-66
2023/08/29 07:16:36;;;;;;;7.23;3.13;;;;;;;13.43;100.00;100412.44;6105076;28;20307;-65
2023/08/29 07:19:31;;;;;;;5.10;2.80;;;;;;;13.43;100.00;100410.59;6108504;28;20286;-66
2023/08/29 07:22:27;;;;;;;5.73;2.47;;;;;;;13.48;100.00;100418.09;6104312;28;20037;-65
2023/08/29 07:25:39;;;;;;;4.30;2.77;;;;;;;13.57;100.00;100411.72;6101989;28;20063;-65
2023/08/29 07:28:34;;;;;;;5.63;3.13;;;;;;;13.78;100.00;100437.78;6100872;28;20453;-65
2023/08/29 07:31:30;;;;;;;5.97;2.95;;;;;;;13.80;100.00;100441.94;6101102;28;20029;-66
2023/08/29 07:34:25;;;;;;;6.60;2.70;;;;;;;13.99;100.00;100438.03;6097417;28;20037;-65
2023/08/29 07:37:21;;;;;;;4.87;2.30;;;;;;;14.11;100.00;100445.44;6096438;28;20032;-66
2023/08/29 07:40:16;;;;;;;4.03;2.50;;;;;;;13.86;100.00;100422.56;6099073;28;20017;-66
2023/08/29 07:43:14;;;;;;;3.87;2.20;;;;;;;14.11;100.00;100432.09;6106326;28;20500;-65
2023/08/29 07:46:09;;;;;;;5.28;2.30;;;;;;;14.39;100.00;100455.63;6105603;28;20472;-66
2023/08/29 07:49:13;;;;;;;4.70;2.45;;;;;;;14.71;100.00;100460.75;6102402;28;20086;-66
2023/08/29 07:52:08;;;;;;;4.93;2.55;;;;;;;14.87;100.00;100447.25;6094212;28;20029;-66
2023/08/29 07:55:05;;;;;;;4.60;2.50;;;;;;;15.00;100.00;100471.50;6100881;28;20076;-65
2023/08/29 07:58:01;;;;;;;3.65;2.33;;;;;;;15.05;100.00;100466.47;6100674;28;20039;-66
2023/08/29 08:00:57;;;;;;;7.47;2.53;;;;;;;15.09;100.00;100462.41;6097909;28;20428;-65
2023/08/29 08:03:52;;;;;;;4.05;2.30;;;;;;;14.94;100.00;100458.91;6101167;28;20060;-65
2023/08/29 08:06:47;;;;;;;4.07;2.27;;;;;;;15.03;100.00;100468.47;6108834;28;20033;-66
2023/08/29 08:09:43;;;;;;;4.17;2.20;;;;;;;15.26;100.00;100471.94;6103079;28;20036;-65
2023/08/29 08:12:39;;;;;;;7.35;2.40;;;;;;;15.30;100.00;100478.56;6111211;28;20275;-66
2023/08/29 08:15:34;;;;;;;5.35;2.15;;;;;;;15.23;100.00;100464.28;6104389;28;20399;-65
2023/08/29 08:18:30;;;;;;;6.47;2.20;;;;;;;15.36;100.00;100437.75;6105710;28;20037;-66
2023/08/29 08:21:25;;;;;;;6.80;2.00;;;;;;;15.81;100.00;100484.06;6106995;28;20033;-66
2023/08/29 08:24:20;;;;;;;4.67;2.20;;;;;;;15.72;100.00;100477.16;6111493;28;20292;-65
2023/08/29 08:27:17;;;;;;;4.63;2.20;;;;;;;16.01;100.00;100477.97;6109742;28;20020;-66
2023/08/29 08:30:12;;;;;;;3.80;2.03;;;;;;;16.26;100.00;100480.31;6107354;28;20275;-66
2023/08/29 08:33:07;;;;;;;4.30;2.10;;;;;;;16.13;100.00;100474.81;6094539;28;20060;-66
2023/08/29 08:36:03;;;;;;;5.03;2.43;;;;;;;16.61;100.00;100484.84;6097925;28;20563;-66
2023/08/29 08:38:58;;;;;;;3.80;2.22;;;;;;;16.68;100.00;100480.41;6102217;28;20025;-66
2023/08/29 08:41:54;;;;;;;3.87;2.03;;;;;;;16.99;100.00;100477.38;6106221;28;20033;-66
2023/08/29 08:44:49;;;;;;;4.28;2.00;;;;;;;17.17;98.51;100491.13;6100109;28;20104;-66
2023/08/29 08:47:45;;;;;;;6.15;2.13;;;;;;;17.01;99.53;100476.16;6098738;28;20041;-65
2023/08/29 08:50:41;;;;;;;3.13;1.80;;;;;;;17.26;98.30;100476.56;6105824;28;20480;-66
2023/08/29 08:53:37;;;;;;;4.60;1.80;;;;;;;17.17;99.47;100475.06;6098710;28;20067;-66
2023/08/29 08:56:32;;;;;;;3.85;1.95;;;;;;;17.41;96.72;100493.38;6104272;28;20029;-65
2023/08/29 08:59:27;;;;;;;4.63;2.08;;;;;;;17.75;96.19;100471.97;6099855;28;20064;-65
2023/08/29 09:02:24;;;;;;;3.70;1.80;;;;;;;18.36;91.49;100467.47;6110119;28;20032;-65
2023/08/29 09:05:20;;;;;;;4.30;1.73;;;;;;;18.92;87.65;100468.00;6085440;28;20167;-65
2023/08/29 09:08:15;;;;;;;4.22;1.92;;;;;;;18.64;90.20;100475.41;6105668;28;20038;-65
2023/08/29 09:11:11;;;;;;;6.50;2.13;;;;;;;19.13;87.54;100482.28;6099626;28;20029;-66
2023/08/29 09:14:07;;;;;;;2.83;1.80;;;;;;;19.39;86.13;100464.28;6102572;28;20036;-65
2023/08/29 09:17:04;;;;;;;4.28;1.80;;;;;;;19.28;84.89;100483.72;6100585;28;20959;-65
2023/08/29 09:20:00;;;;;;;3.83;2.05;;;;;;;19.32;83.93;100484.13;6086770;28;20040;-65
2023/08/29 09:22:55;;;;;;;3.20;1.80;;;;;;;18.00;89.35;100492.91;6099828;28;20033;-65
2023/08/29 09:25:55;;;;;;;3.97;1.88;;;;;;;18.33;91.37;100473.25;6097275;28;20036;-65
2023/08/29 09:28:50;;;;;;;3.33;1.92;;;;;;;19.02;86.80;100484.53;6103535;28;20055;-66
2023/08/29 09:31:49;;;;;;;8.90;1.80;;;;;;;19.76;84.27;100486.97;6103288;28;20079;-66
2023/08/29 09:34:44;;;;;;;3.38;1.80;;;;;;;19.00;84.83;100485.78;6097165;28;20033;-66
2023/08/29 09:37:42;;;;;;;3.15;1.58;;;;;;;19.18;85.56;100475.25;6100258;28;20036;-66
2023/08/29 09:40:51;;;;;;;2.95;1.40;;;;;;;19.53;84.48;100481.22;6106847;28;20375;-66
2023/08/29 09:43:47;;;;;;;5.50;1.58;;;;;;;19.62;83.19;100474.59;6097283;28;20025;-66
2023/08/29 09:46:43;;;;;;;6.47;1.80;;;;;;;19.19;84.30;100473.34;6100299;28;20100;-65
2023/08/29 09:49:43;;;;;;;4.35;1.50;;;;;;;19.88;81.94;100477.22;6112264;28;20029;-66
2023/08/29 09:52:39;;;;;;;1.80;1.33;;;;;;;20.17;79.97;100478.53;6107356;28;20157;-66
2023/08/29 09:55:46;;;;;;;3.67;1.50;;;;;;;20.00;81.21;100478.19;6110513;28;20523;-66
2023/08/29 09:58:42;;;;;;;2.15;1.25;;;;;;;19.37;81.53;100481.63;6109395;28;20048;-65
2023/08/29 10:01:40;;;;;;;2.95;1.30;;;;;;;19.58;82.50;100476.88;6113619;28;20485;-66
2023/08/29 10:04:40;;;;;;;4.22;1.40;;;;;;;20.15;80.37;100454.53;6096219;28;20036;-66
2023/08/29 10:07:41;;;;;;;3.08;1.60;;;;;;;19.82;78.59;100455.69;6085136;28;20071;-66
2023/08/29 10:10:38;;;;;;;3.97;1.50;;;;;;;19.88;79.59;100469.13;6091540;28;20115;-66
2023/08/29 10:13:34;;;;;;;5.28;1.63;;;;;;;19.67;80.99;100453.25;6085759;28;20052;-66
2023/08/29 10:16:30;;;;;;;3.00;1.60;;;;;;;19.79;79.49;100448.03;6116023;28;20617;-65
2023/08/29 10:19:27;;;;;;;3.47;1.30;;;;;;;19.84;81.22;100449.06;6109454;28;20037;-66
2023/08/29 10:22:24;;;;;;;3.15;1.42;;;;;;;19.83;81.19;100444.72;6087762;28;20082;-65
2023/08/29 10:25:23;;;;;;;3.88;1.45;;;;;;;20.68;76.38;100456.94;6116344;28;20048;-66
2023/08/29 10:28:19;;;;;;;2.47;1.38;;;;;;;21.05;72.69;100450.63;6109137;28;20079;-65
2023/08/29 10:31:15;;;;;;;2.55;1.23;;;;;;;21.21;69.08;100444.72;6104328;28;20036;-66
2023/08/29 10:34:11;;;;;;;4.55;1.38;;;;;;;20.79;72.23;100437.34;6103910;28;20036;-66
2023/08/29 10:37:18;;;;;;;3.58;1.73;;;;;;;19.57;79.78;100450.16;6112579;28;20045;-66
2023/08/29 10:40:14;;;;;;;3.88;1.15;;;;;;;19.89;78.44;100449.25;6102311;28;20035;-66
2023/08/29 10:43:18;;;;;;;4.25;1.65;;;;;;;19.92;78.92;100451.50;6099725;28;20060;-66
2023/08/29 10:46:14;;;;;;;2.80;0.98;;;;;;;20.11;77.50;100433.63;6098237;28;20036;-66
2023/08/29 10:49:10;;;;;;;1.45;0.90;;;;;;;20.09;77.23;100433.84;6116422;28;20037;-66
2023/08/29 10:52:09;;;;;;;2.70;1.08;;;;;;;20.00;76.08;100428.91;6102887;28;20037;-66
2023/08/29 10:55:09;;;;;;;1.70;1.10;;;;;;;20.23;76.47;100450.75;6110945;28;20033;-66
2023/08/29 10:58:24;;;;;;;;;;;;;;;20.20;74.75;100443.94;6101663;28;20472;-66
2023/08/29 11:01:30;;;;;;;1.83;0.95;;;;;;;19.91;75.83;100441.78;6105639;28;20003;-66
2023/08/29 11:04:25;;;;;;;2.47;0.90;;;;;;;19.88;77.89;100436.00;6103962;28;20064;-66
2023/08/29 11:07:25;;;;;;;3.00;1.10;;;;;;;19.95;76.43;100426.03;6078417;28;20055;-66
2023/08/29 11:10:22;;;;;;;1.95;0.80;;;;;;;19.96;76.27;100420.44;6101055;28;20032;-66
2023/08/29 11:13:18;;;;;;;2.70;1.00;;;;;;;20.31;73.99;100420.06;6098436;28;20033;-66
2023/08/29 11:16:14;;;;;;;2.20;0.82;;;;;;;20.06;73.68;100420.78;6087099;28;20025;-66
2023/08/29 11:19:12;;;;;;;2.13;1.00;;;;;;;20.10;74.36;100432.81;6107169;28;20084;-65
2023/08/29 11:22:08;;;;;;;3.80;1.42;;;;;;;19.84;77.15;100410.56;6091852;28;20272;-66
2023/08/29 11:25:04;;;;;;;3.30;1.10;;;;;;;20.00;77.77;100418.94;6099932;28;20349;-66
2023/08/29 11:28:00;;;;;;;2.20;0.98;;;;;;;20.15;74.34;100410.59;6077136;28;20060;-66
2023/08/29 11:30:55;;;;;;;2.92;0.95;;;;;;;20.25;74.45;100412.88;6096190;28;20032;-66
2023/08/29 11:33:51;;;;;;;2.95;1.10;;;;;;;20.48;73.15;100399.66;6078770;28;20078;-66
2023/08/29 11:36:53;;;;;;;2.28;0.98;;;;;;;20.70;70.45;100411.72;6104766;28;20056;-66
2023/08/29 11:39:53;;;;;;;1.48;0.90;;;;;;;20.11;72.10;100398.63;6092162;28;20499;-66
2023/08/29 11:42:48;;;;;;;2.03;0.85;;;;;;;20.50;72.19;100397.56;6104477;28;20037;-65
2023/08/29 11:45:43;;;;;;;1.43;0.83;;;;;;;20.45;72.65;100400.09;6096701;28;20051;-66
2023/08/29 11:48:39;;;;;;;1.77;0.87;;;;;;;20.66;71.04;100392.47;6092990;28;20275;-67
2023/08/29 11:51:34;;;;;;;2.37;1.17;;;;;;;20.59;69.56;100394.41;6106513;28;20160;-66
2023/08/29 11:54:47;;;;;;;2.33;0.90;;;;;;;20.69;68.55;100389.34;6092695;28;20302;-66
2023/08/29 11:57:44;;;;;;;1.90;0.98;;;;;;;20.75;70.02;100404.63;6100448;28;20065;-66
2023/08/29 12:00:40;;;;;;;2.25;0.90;;;;;;;20.67;69.57;100407.59;6100909;28;20037;-66
2023/08/29 12:03:38;;;;;;;1.73;0.93;;;;;;;20.89;68.46;100405.34;6093363;28;20102;-67
2023/08/29 12:06:34;;;;;;;2.80;0.80;;;;;;;21.17;65.43;100389.53;6097618;28;20120;-66
2023/08/29 12:09:29;;;;;;;3.00;0.73;;;;;;;20.87;67.13;100388.59;6102992;28;20094;-66
2023/08/29 12:12:33;;;;;;;1.83;0.80;;;;;;;20.93;64.62;100403.03;6108291;28;20396;-66
2023/08/29 12:15:35;;;;;;;2.53;0.85;;;;;;;21.02;66.54;100391.75;6103245;28;20504;-66
2023/08/29 12:18:32;;;;;;;3.42;0.90;;;;;;;21.28;65.15;100382.59;6098858;28;20043;-66
2023/08/29 12:21:27;;;;;;;2.78;1.00;;;;;;;20.86;63.39;100376.13;6088965;28;20107;-67
2023/08/29 12:24:23;;;;;;;4.33;0.90;;;;;;;20.81;63.19;100369.75;6086490;28;20468;-66
2023/08/29 12:27:19;;;;;;;1.38;0.63;;;;;;;20.68;63.82;100373.41;6094228;28;20283;-66
2023/08/29 12:30:15;;;;;;;1.10;0.70;;;;;;;21.03;60.75;100369.16;6100808;28;20150;-66
2023/08/29 12:33:10;;;;;;;2.90;1.23;;;;;;;21.77;58.82;100370.81;6108365;28;20036;-65
2023/08/29 12:36:05;;;;;;;1.00;0.77;;;;;;;21.45;60.70;100375.56;6094697;28;20053;-67
2023/08/29 12:39:01;;;;;;;1.60;1.07;;;;;;;21.30;60.97;100378.66;6094793;28;20452;-67
2023/08/29 12:41:56;;;;;;;1.60;0.83;;;;;;;21.05;61.53;100383.22;6091537;28;20447;-66
2023/08/29 12:44:52;;;;;;;2.60;0.77;;;;;;;20.73;63.02;100376.25;6092978;28;20032;-66
2023/08/29 12:47:48;;;;;;;1.88;0.90;;;;;;;20.79;61.79;100369.97;6097063;28;20097;-67
2023/08/29 12:50:43;;;;;;;2.28;0.82;;;;;;;20.81;60.52;100365.19;6101235;28;20377;-66
2023/08/29 12:53:39;;;;;;;2.33;0.60;;;;;;;20.65;60.55;100381.94;6095496;28;20106;-66
2023/08/29 12:56:35;;;;;;;1.98;0.77;;;;;;;20.33;61.33;100353.38;6097598;28;20032;-66
2023/08/29 12:59:30;;;;;;;0.93;0.70;;;;;;;20.11;58.81;100361.72;6101525;28;20048;-66
2023/08/29 13:02:26;;;;;;;2.67;0.70;;;;;;;20.61;60.85;100351.06;6100166;28;20028;-66
2023/08/29 13:05:21;;;;;;;2.05;0.82;;;;;;;21.23;59.12;100350.91;6094786;28;20037;-66
2023/08/29 13:08:18;;;;;;;2.53;0.90;;;;;;;21.80;57.49;100351.44;6106474;28;20468;-66
2023/08/29 13:11:13;;;;;;;0.77;0.55;;;;;;;21.73;53.37;100343.47;6100034;28;20029;-66
2023/08/29 13:14:09;;;;;;;1.33;0.67;;;;;;;21.30;54.12;100346.28;6100367;28;20025;-66
2023/08/29 13:17:04;;;;;;;2.43;0.73;;;;;;;21.19;54.63;100338.91;6110857;28;20447;-66
2023/08/29 13:19:59;;;;;;;1.30;0.80;;;;;;;21.36;55.51;100358.03;6101761;28;20487;-67
2023/08/29 13:22:55;;;;;;;1.10;0.80;;;;;;;21.75;55.99;100348.63;6099222;28;20029;-66
2023/08/29 13:25:50;;;;;;;2.97;0.80;;;;;;;21.36;54.86;100329.16;6094336;28;20071;-66
2023/08/29 13:28:45;;;;;;;2.13;0.90;;;;;;;21.58;55.93;100336.81;6108709;28;20103;-67
2023/08/29 13:31:42;;;;;;;1.20;0.52;;;;;;;21.59;54.00;100322.25;6104969;28;20025;-67
2023/08/29 13:34:37;;;;;;;0.88;0.55;;;;;;;22.50;52.33;100331.72;6099660;28;20427;-67